Time;durP1;ratioP1;P1;durP2;ratioP2;P2;SDS_P1;SDS_P2;PMS_P1;PMS_P2;Temp;Humidity;BMP_temperature;BMP_pressure;BME280_temperature;BME280_humidity;BME280_pressure;Samples;Min_cycle;Max_cycle;Signal;HPM_P1;HPM_P2
2023/05/04 00:01:38;;;;;;;;;;;;;;;14.46;100.00;100177.31;5065222;28;19917;-87
2023/05/04 00:04:03;;;;;;;;;;;;;;;14.48;100.00;100163.88;5050101;28;20010;-86
2023/05/04 00:06:29;;;;;;;;;;;;;;;14.55;100.00;100170.25;5065135;28;19928;-86
2023/05/04 00:08:55;;;;;;;;;;;;;;;14.60;100.00;100162.66;5069328;28;19920;-87
2023/05/04 00:11:21;;;;;;;;;;;;;;;14.71;100.00;100175.69;5065682;28;19921;-86
2023/05/04 00:13:47;;;;;;;;;;;;;;;14.67;100.00;100169.84;5068358;28;20347;-85
2023/05/04 00:16:12;;;;;;;;;;;;;;;14.50;100.00;100170.69;5061967;28;19917;-87
2023/05/04 00:18:38;;;;;;;;;;;;;;;14.30;100.00;100177.97;5069140;28;20018;-86
2023/05/04 00:21:03;;;;;;;;;;;;;;;14.43;100.00;100176.78;5063918;28;19916;-87
2023/05/04 00:23:29;;;;;;;;;;;;;;;14.50;100.00;100169.84;5067213;28;19920;-86
2023/05/04 00:25:56;;;;;;;;;;;;;;;14.58;100.00;100175.25;5043490;28;19957;-86
2023/05/04 00:28:22;;;;;;;;;;;;;;;14.64;100.00;100164.03;5068249;28;19974;-89
2023/05/04 00:30:47;;;;;;;;;;;;;;;14.67;100.00;100163.69;5076971;28;19928;-92
2023/05/04 00:33:12;;;;;;;;;;;;;;;14.69;100.00;100159.91;5053469;28;19924;-92
2023/05/04 00:35:38;;;;;;;;;;;;;;;14.70;100.00;100158.09;5049916;28;19925;-92
2023/05/04 00:38:04;;;;;;;;;;;;;;;14.73;100.00;100157.75;5076181;28;19974;-92
2023/05/04 00:40:29;;;;;;;;;;;;;;;14.75;100.00;100163.78;5087424;28;19925;-92
2023/05/04 00:45:26;;;;;;;;;;;;;;;14.69;100.00;100156.41;5060599;28;19993;-75
2023/05/04 00:47:52;;;;;;;;;;;;;;;14.53;100.00;100158.94;5060862;28;20007;-75
2023/05/04 00:50:18;;;;;;;;;;;;;;;14.48;100.00;100163.88;5033267;28;20389;-75
2023/05/04 00:52:44;;;;;;;;;;;;;;;14.39;100.00;100149.69;5059783;28;19928;-74
2023/05/04 00:55:10;;;;;;;;;;;;;;;14.26;100.00;100150.03;5062793;28;19928;-75
2023/05/04 00:57:35;;;;;;;;;;;;;;;14.04;100.00;100160.28;5059167;28;19920;-75
2023/05/04 01:00:01;;;;;;;;;;;;;;;13.89;100.00;100152.00;5057768;28;19975;-76
2023/05/04 01:02:27;;;;;;;;;;;;;;;14.00;100.00;100151.78;5059733;28;19928;-75
2023/05/04 01:04:53;;;;;;;;;;;;;;;14.01;100.00;100156.13;5058402;28;19956;-76
2023/05/04 01:07:25;;;;;;;;;;;;;;;13.92;100.00;100152.53;5062592;28;20107;-76
2023/05/04 01:09:58;;;;;;;;;;;;;;;13.98;100.00;100153.75;5060027;28;19992;-76
2023/05/04 01:12:32;;;;;;;;;;;;;;;14.04;100.00;100150.50;5058935;28;19921;-76
2023/05/04 01:14:58;;;;;;;;;;;;;;;14.10;100.00;100160.50;5063644;28;19920;-76
2023/05/04 01:17:23;;;;;;;;;;;;;;;14.12;100.00;100163.84;5063465;28;19924;-75
2023/05/04 01:19:50;;;;;;;;;;;;;;;14.17;100.00;100161.56;5064334;28;20415;-77
2023/05/04 01:22:15;;;;;;;;;;;;;;;14.31;100.00;100169.00;5046194;28;19927;-75
2023/05/04 01:24:40;;;;;;;;;;;;;;;14.29;100.00;100164.84;5062545;28;19925;-76
2023/05/04 01:27:41;;;;;;;;;;;;;;;14.20;100.00;100163.91;5065249;28;19927;-76
2023/05/04 01:30:13;;;;;;;;;;;;;;;14.10;100.00;100165.81;4968356;28;19937;-76
2023/05/04 01:32:40;;;;;;;;;;;;;;;14.18;100.00;100171.22;5051487;28;19928;-77
2023/05/04 01:35:06;;;;;;;;;;;;;;;14.07;100.00;100162.63;5063782;28;20032;-76
2023/05/04 01:37:31;;;;;;;;;;;;;;;13.85;100.00;100161.22;5062279;28;19960;-77
2023/05/04 01:39:57;;;;;;;;;;;;;;;13.79;100.00;100169.78;5066060;28;20266;-79
2023/05/04 01:42:22;;;;;;;;;;;;;;;13.85;100.00;100174.50;5063574;28;19921;-78
2023/05/04 01:44:47;;;;;;;;;;;;;;;13.97;100.00;100173.31;5089194;28;20384;-77
2023/05/04 01:47:13;;;;;;;;;;;;;;;13.99;100.00;100167.84;5103509;28;19923;-78
2023/05/04 01:49:38;;;;;;;;;;;;;;;14.02;100.00;100168.38;5100871;28;19973;-78
2023/05/04 01:52:04;;;;;;;;;;;;;;;14.02;100.00;100165.72;5102772;28;19928;-78
2023/05/04 01:54:29;;;;;;;;;;;;;;;14.10;100.00;100173.78;5102993;28;19965;-77
2023/05/04 01:56:56;;;;;;;;;;;;;;;14.23;100.00;100168.94;5107511;28;19919;-78
2023/05/04 01:59:21;;;;;;;;;;;;;;;14.33;100.00;100172.34;5098249;28;20364;-78
2023/05/04 02:01:46;;;;;;;;;;;;;;;14.10;100.00;100164.97;5109121;28;19920;-78
2023/05/04 02:04:12;;;;;;;;;;;;;;;14.07;100.00;100182.06;5096769;28;20410;-79
2023/05/04 02:06:37;;;;;;;;;;;;;;;14.06;100.00;100184.84;5103415;28;20679;-77
2023/05/04 02:09:03;;;;;;;;;;;;;;;14.18;100.00;100187.16;5097644;28;19924;-76
2023/05/04 02:11:28;;;;;;;;;;;;;;;14.17;100.00;100182.81;5064118;28;20015;-77
2023/05/04 02:13:53;;;;;;;;;;;;;;;13.93;100.00;100179.91;5083526;28;19928;-76
2023/05/04 02:16:19;;;;;;;;;;;;;;;13.97;100.00;100178.59;5100100;28;20357;-76
2023/05/04 02:18:45;;;;;;;;;;;;;;;13.93;100.00;100179.91;5100954;28;19931;-76
2023/05/04 02:21:11;;;;;;;;;;;;;;;14.03;100.00;100180.66;5080869;28;19969;-75
2023/05/04 02:23:36;;;;;;;;;;;;;;;14.09;100.00;100180.06;5080899;28;19920;-77
2023/05/04 02:26:02;;;;;;;;;;;;;;;14.10;100.00;100187.03;5083328;28;19927;-75
2023/05/04 02:28:27;;;;;;;;;;;;;;;14.02;100.00;100184.28;5099779;28;19998;-77
2023/05/04 02:30:52;;;;;;;;;;;;;;;13.95;100.00;100193.84;5096119;28;19952;-77
2023/05/04 02:33:18;;;;;;;;;;;;;;;13.96;100.00;100187.53;5101648;28;19950;-77
2023/05/04 02:35:43;;;;;;;;;;;;;;;13.98;100.00;100187.41;5098791;28;19920;-77
2023/05/04 02:38:09;;;;;;;;;;;;;;;13.98;100.00;100177.63;5101252;28;19920;-78
2023/05/04 02:40:34;;;;;;;;;;;;;;;14.04;100.00;100177.03;5098819;28;19927;-78
2023/05/04 02:42:59;;;;;;;;;;;;;;;14.04;100.00;100179.69;5099991;28;19923;-78
2023/05/04 02:45:25;;;;;;;;;;;;;;;13.92;100.00;100175.56;5090107;28;19965;-77
2023/05/04 02:47:50;;;;;;;;;;;;;;;13.88;100.00;100179.50;5080322;28;20321;-78
2023/05/04 02:50:16;;;;;;;;;;;;;;;13.88;100.00;100171.56;5100663;28;19996;-78
2023/05/04 02:52:41;;;;;;;;;;;;;;;13.93;100.00;100179.91;5080719;28;20082;-76
2023/05/04 02:55:07;;;;;;;;;;;;;;;14.01;100.00;100177.34;5076666;28;20014;-77
2023/05/04 02:57:32;;;;;;;;;;;;;;;13.96;100.00;100176.94;5082777;28;20264;-77
2023/05/04 02:59:57;;;;;;;;;;;;;;;14.10;100.00;100176.44;5100999;28;19923;-77
2023/05/04 03:02:23;;;;;;;;;;;;;;;14.20;100.00;100166.56;5099200;28;20387;-76
2023/05/04 03:04:48;;;;;;;;;;;;;;;14.29;100.00;100171.00;5099882;28;19939;-76
2023/05/04 03:07:13;;;;;;;;;;;;;;;14.32;100.00;100170.66;5082228;28;19924;-77
2023/05/04 03:09:39;;;;;;;;;;;;;;;14.30;100.00;100170.00;5096660;28;20276;-76
2023/05/04 03:12:05;;;;;;;;;;;;;;;14.31;100.00;100169.00;5101081;28;20295;-76
2023/05/04 03:14:30;;;;;;;;;;;;;;;14.38;100.00;100163.13;5098173;28;19927;-74
2023/05/04 03:16:57;;;;;;;;;;;;;;;14.41;100.00;100155.69;5097883;28;20351;-76
2023/05/04 03:19:22;;;;;;;;;;;;;;;14.45;100.00;100159.72;5090536;28;20388;-77
2023/05/04 03:21:48;;;;;;;;;;;;;;;14.52;100.00;100159.94;5079861;28;20020;-76
2023/05/04 03:24:15;;;;;;;;;;;;;;;14.55;100.00;100157.00;5080266;28;19957;-76
2023/05/04 03:26:41;;;;;;;;;;;;;;;14.56;100.00;100158.63;5079823;28;19920;-76
2023/05/04 03:29:06;;;;;;;;;;;;;;;14.61;100.00;100164.31;5080163;28;20241;-77
2023/05/04 03:31:32;;;;;;;;;;;;;;;14.60;100.00;100168.81;5101383;28;19919;-76
2023/05/04 03:33:58;;;;;;;;;;;;;;;14.65;100.00;100163.03;5101501;28;20193;-76
2023/05/04 03:36:23;;;;;;;;;;;;;;;14.65;100.00;100173.66;5081119;28;19916;-76
2023/05/04 03:38:49;;;;;;;;;;;;;;;14.63;100.00;100165.00;5078381;28;19930;-77
2023/05/04 03:41:15;;;;;;;;;;;;;;;14.62;100.00;100171.28;5076512;28;19924;-76
2023/05/04 03:43:40;;;;;;;;;;;;;;;14.64;100.00;100174.63;5097640;28;20110;-78
2023/05/04 03:46:06;;;;;;;;;;;;;;;14.60;100.00;100178.59;5084001;28;19931;-78
2023/05/04 03:48:32;;;;;;;;;;;;;;;14.57;100.00;100174.41;5062695;28;19955;-77
2023/05/04 03:50:57;;;;;;;;;;;;;;;14.36;100.00;100171.22;5082604;28;19926;-79
2023/05/04 03:53:23;;;;;;;;;;;;;;;14.27;100.00;100167.66;5101035;28;19924;-77
2023/05/04 03:55:48;;;;;;;;;;;;;;;14.12;100.00;100168.31;5080508;28;19920;-78
2023/05/04 03:58:13;;;;;;;;;;;;;;;13.94;100.00;100171.78;5094922;28;20355;-78
2023/05/04 04:00:39;;;;;;;;;;;;;;;13.93;100.00;100170.13;5100224;28;20015;-78
2023/05/04 04:03:12;;;;;;;;;;;;;;;13.80;100.00;100172.28;5066186;28;19928;-78
2023/05/04 04:05:37;;;;;;;;;;;;;;;13.86;100.00;100170.84;5085153;28;20021;-77
2023/05/04 04:08:03;;;;;;;;;;;;;;;13.80;100.00;100174.09;5081358;28;20329;-76
2023/05/04 04:10:29;;;;;;;;;;;;;;;13.82;100.00;100177.44;5085138;28;19920;-76
2023/05/04 04:12:55;;;;;;;;;;;;;;;13.92;100.00;100172.91;5111112;28;19919;-77
2023/05/04 04:15:20;;;;;;;;;;;;;;;14.01;100.00;100182.66;5108879;28;20348;-77
2023/05/04 04:17:45;;;;;;;;;;;;;;;14.05;100.00;100170.75;5104799;28;19954;-76
2023/05/04 04:20:11;;;;;;;;;;;;;;;14.07;100.00;100179.41;5104623;28;19928;-77
2023/05/04 04:22:37;;;;;;;;;;;;;;;14.07;100.00;100182.06;5089140;28;19920;-77
2023/05/04 04:25:02;;;;;;;;;;;;;;;14.17;100.00;100187.28;5117401;28;19934;-76
2023/05/04 04:27:28;;;;;;;;;;;;;;;14.14;100.00;100188.41;5104623;28;19927;-77
2023/05/04 04:29:53;;;;;;;;;;;;;;;14.16;100.00;100186.44;5103473;28;19920;-77
2023/05/04 04:32:20;;;;;;;;;;;;;;;14.15;100.00;100195.38;5104744;28;20006;-74
2023/05/04 04:34:45;;;;;;;;;;;;;;;13.87;100.00;100196.41;5102094;28;20374;-77
2023/05/04 04:37:10;;;;;;;;;;;;;;;13.92;100.00;100191.50;5103420;28;20169;-78
2023/05/04 04:39:36;;;;;;;;;;;;;;;13.95;100.00;100196.50;5102667;28;19920;-78
2023/05/04 04:42:01;;;;;;;;;;;;;;;13.97;100.00;100197.19;5102124;28;20449;-77
2023/05/04 04:44:27;;;;;;;;;;;;;;;14.00;100.00;100194.25;5087244;28;19919;-76
2023/05/04 04:46:52;;;;;;;;;;;;;;;13.99;100.00;100200.53;5104776;28;19969;-78
2023/05/04 04:49:17;;;;;;;;;;;;;;;13.99;100.00;100192.56;5102672;28;19996;-77
2023/05/04 04:51:43;;;;;;;;;;;;;;;13.89;100.00;100205.06;5103483;28;20356;-76
2023/05/04 04:54:08;;;;;;;;;;;;;;;13.90;100.00;100201.44;5103786;28;19946;-76
2023/05/04 04:56:34;;;;;;;;;;;;;;;13.90;100.00;100190.81;5102554;28;19927;-76
2023/05/04 04:58:59;;;;;;;;;;;;;;;14.01;100.00;100201.22;5101693;28;19927;-77
2023/05/04 05:01:25;;;;;;;;;;;;;;;14.06;100.00;100200.78;5101027;28;19920;-77
2023/05/04 05:03:50;;;;;;;;;;;;;;;14.09;100.00;100205.75;5102951;28;19920;-78
2023/05/04 05:06:17;;;;;;;;;;;;;;;14.08;100.00;100212.88;5101402;28;19928;-78
2023/05/04 05:08:43;;;;;;;;;;;;;;;14.02;100.00;100205.53;5102415;28;20007;-76
2023/05/04 05:11:09;;;;;;;;;;;;;;;13.99;100.00;100205.84;5103184;28;20165;-78
2023/05/04 05:13:34;;;;;;;;;;;;;;;13.93;100.00;100206.44;5100811;28;19920;-77
2023/05/04 05:16:00;;;;;;;;;;;;;;;13.73;100.00;100205.69;5101653;28;19920;-77
2023/05/04 05:18:25;;;;;;;;;;;;;;;13.72;100.00;100206.69;5103549;28;20467;-78
2023/05/04 05:20:51;;;;;;;;;;;;;;;13.84;100.00;100205.47;5100998;28;19924;-79
2023/05/04 05:23:16;;;;;;;;;;;;;;;13.85;100.00;100203.66;5084816;28;20006;-78
2023/05/04 05:25:42;;;;;;;;;;;;;;;13.89;100.00;100205.06;5103827;28;20426;-77
2023/05/04 05:28:08;;;;;;;;;;;;;;;13.96;100.00;100206.13;5101049;28;20299;-76
2023/05/04 05:30:33;;;;;;;;;;;;;;;14.02;100.00;100210.81;5101692;28;19920;-76
2023/05/04 05:32:58;;;;;;;;;;;;;;;13.99;100.00;100219.09;5102388;28;19963;-75
2023/05/04 05:35:24;;;;;;;;;;;;;;;14.01;100.00;100224.28;5100962;28;19923;-75
2023/05/04 05:37:49;;;;;;;;;;;;;;;13.96;100.00;100222.03;5094573;28;19959;-75
2023/05/04 05:40:15;;;;;;;;;;;;;;;14.11;100.00;100228.53;5100388;28;19959;-74
2023/05/04 05:42:41;;;;;;;;;;;;;;;14.18;100.00;100224.31;5098916;28;20302;-73
2023/05/04 05:45:08;;;;;;;;;;;;;;;14.17;100.00;100229.75;5096603;28;20082;-75
2023/05/04 05:47:33;;;;;;;;;;;;;;;14.20;100.00;100227.63;5100761;28;20018;-74
2023/05/04 05:49:58;;;;;;;;;;;;;;;14.22;100.00;100217.69;5101286;28;20007;-75
2023/05/04 05:52:24;;;;;;;;;;;;;;;14.25;100.00;100222.72;5101152;28;19919;-74
2023/05/04 05:54:49;;;;;;;;;;;;;;;14.30;100.00;100220.44;5097561;28;19924;-74
2023/05/04 05:57:15;;;;;;;;;;;;;;;14.28;100.00;100214.44;5100472;28;20010;-75
2023/05/04 05:59:43;;;;;;;;;;;;;;;14.45;100.00;100218.13;5101076;28;19920;-74
2023/05/04 06:02:08;;;;;;;;;;;;;;;14.33;100.00;100220.13;5100966;28;20367;-73
2023/05/04 06:04:35;;;;;;;;;;;;;;;14.32;100.00;100218.47;5100260;28;20813;-73
2023/05/04 06:07:00;;;;;;;;;;;;;;;14.32;100.00;100223.78;5103060;28;20502;-75
2023/05/04 06:09:25;;;;;;;;;;;;;;;14.38;100.00;100221.53;5099168;28;19923;-71
2023/05/04 06:11:51;;;;;;;;;;;;;;;14.41;100.00;100226.56;5054977;28;19928;-74
2023/05/04 06:14:17;;;;;;;;;;;;;;;14.63;100.00;100220.78;5099418;28;20079;-74
2023/05/04 06:16:42;;;;;;;;;;;;;;;14.66;100.00;100216.00;5097121;28;19923;-75
2023/05/04 06:19:09;;;;;;;;;;;;;;;14.74;100.00;100223.19;5080419;28;19920;-75
2023/05/04 06:21:34;;;;;;;;;;;;;;;14.75;100.00;100219.56;5099849;28;19920;-75
2023/05/04 06:24:00;;;;;;;;;;;;;;;14.84;100.00;100223.97;5101062;28;20284;-75
2023/05/04 06:26:25;;;;;;;;;;;;;;;14.90;100.00;100223.34;5102688;28;19931;-76
2023/05/04 06:28:50;;;;;;;;;;;;;;;14.93;100.00;100228.34;5101419;28;19969;-76
2023/05/04 06:31:17;;;;;;;;;;;;;;;15.00;100.00;100229.41;5104008;28;20039;-75
2023/05/04 06:33:42;;;;;;;;;;;;;;;15.08;100.00;100232.09;5082083;28;19991;-75
2023/05/04 06:36:07;;;;;;;;;;;;;;;15.20;100.00;100229.22;5095836;28;19931;-74
2023/05/04 06:38:33;;;;;;;;;;;;;;;15.40;100.00;100230.66;5101755;28;19920;-74
2023/05/04 06:40:58;;;;;;;;;;;;;;;15.43;100.00;100225.03;5099409;28;19923;-76
2023/05/04 06:43:24;;;;;;;;;;;;;;;15.30;100.00;100219.31;5101357;28;19920;-75
2023/05/04 06:45:49;;;;;;;;;;;;;;;15.49;100.00;100224.41;5103105;28;19928;-74
2023/05/04 06:48:17;;;;;;;;;;;;;;;15.44;100.00;100222.19;5080210;28;20336;-74
2023/05/04 06:50:42;;;;;;;;;;;;;;;15.60;100.00;100221.50;5102383;28;20113;-75
2023/05/04 06:53:09;;;;;;;;;;;;;;;15.70;100.00;100222.22;5102051;28;19967;-75
2023/05/04 06:55:36;;;;;;;;;;;;;;;15.88;100.00;100230.94;5098410;28;20006;-76
2023/05/04 06:58:01;;;;;;;;;;;;;;;16.00;100.00;100227.97;5062534;28;19928;-77
2023/05/04 07:00:27;;;;;;;;;;;;;;;16.12;100.00;100226.69;5099370;28;19920;-76
2023/05/04 07:02:52;;;;;;;;;;;;;;;16.26;100.00;100231.38;5100642;28;19928;-76
2023/05/04 07:05:21;;;;;;;;;;;;;;;16.28;100.00;100229.41;5101001;28;19928;-76
2023/05/04 07:07:47;;;;;;;;;;;;;;;16.37;100.00;100225.75;5099212;28;20329;-76
2023/05/04 07:10:13;;;;;;;;;;;;;;;16.35;100.00;100233.06;5100523;28;19924;-76
2023/05/04 07:12:39;;;;;;;;;;;;;;;16.38;100.00;100227.41;5102157;28;19920;-75
2023/05/04 07:15:05;;;;;;;;;;;;;;;16.49;100.00;100223.63;5081345;28;19927;-76
2023/05/04 07:17:31;;;;;;;;;;;;;;;16.64;100.00;100233.50;5098319;28;20394;-76
2023/05/04 07:19:56;;;;;;;;;;;;;;;16.75;100.00;100232.31;5099305;28;19963;-76
2023/05/04 07:22:22;;;;;;;;;;;;;;;16.83;100.00;100231.50;5099787;28;20015;-76
2023/05/04 07:24:47;;;;;;;;;;;;;;;16.90;100.00;100235.16;5102340;28;19965;-76
2023/05/04 07:27:12;;;;;;;;;;;;;;;16.94;100.00;100231.16;5099643;28;19966;-76
2023/05/04 07:29:38;;;;;;;;;;;;;;;17.04;100.00;100231.81;5098474;28;19927;-76
2023/05/04 07:32:03;;;;;;;;;;;;;;;17.06;100.00;100228.00;5098315;28;20273;-74
2023/05/04 07:34:28;;;;;;;;;;;;;;;17.17;100.00;100234.81;5102926;28;20462;-76
2023/05/04 07:36:54;;;;;;;;;;;;;;;17.26;100.00;100233.78;5097657;28;20581;-76
2023/05/04 07:39:19;;;;;;;;;;;;;;;17.38;100.00;100224.44;5099555;28;19920;-75
2023/05/04 07:41:44;;;;;;;;;;;;;;;17.44;100.00;100230.91;5099831;28;19920;-75
2023/05/04 07:44:11;;;;;;;;;;;;;;;17.43;100.00;100227.44;5101134;28;20726;-73
2023/05/04 07:46:38;;;;;;;;;;;;;;;17.50;100.00;100233.75;5099558;28;19927;-75
2023/05/04 07:49:03;;;;;;;;;;;;;;;17.57;100.00;100226.72;5103121;28;20303;-75
2023/05/04 07:51:29;;;;;;;;;;;;;;;17.61;100.00;100231.75;5100571;28;19931;-75
2023/05/04 07:53:55;;;;;;;;;;;;;;;17.66;100.00;100224.91;5096671;28;19967;-75
2023/05/04 07:56:20;;;;;;;;;;;;;;;17.78;100.00;100225.38;5101093;28;19936;-75
2023/05/04 07:58:46;;;;;;;;;;;;;;;17.90;100.00;100232.00;5102418;28;20462;-75
2023/05/04 08:01:12;;;;;;;;;;;;;;;17.95;100.00;100226.97;5100799;28;19924;-74
2023/05/04 08:03:37;;;;;;;;;;;;;;;18.06;100.00;100231.91;5085068;28;20368;-75
2023/05/04 08:06:03;;;;;;;;;;;;;;;18.16;100.00;100224.50;5104745;28;19919;-76
2023/05/04 08:08:28;;;;;;;;;;;;;;;18.22;100.00;100221.13;5102828;28;20340;-74
2023/05/04 08:10:54;;;;;;;;;;;;;;;18.23;100.00;100217.44;5108219;28;20130;-74
2023/05/04 08:13:19;;;;;;;;;;;;;;;18.29;100.00;100216.75;5101275;28;19919;-74
2023/05/04 08:15:44;;;;;;;;;;;;;;;18.33;100.00;100212.72;5106540;28;20346;-73
2023/05/04 08:18:09;;;;;;;;;;;;;;;18.40;100.00;100211.00;5103704;28;19927;-76
2023/05/04 08:20:35;;;;;;;;;;;;;;;18.40;100.00;100216.34;5107768;28;19922;-76
2023/05/04 08:23:02;;;;;;;;;;;;;;;18.48;100.00;100209.28;5104467;28;20003;-76
2023/05/04 08:25:28;;;;;;;;;;;;;;;18.50;100.00;100212.59;5104163;28;19998;-74
2023/05/04 08:27:53;;;;;;;;;;;;;;;18.41;100.00;100215.34;5101920;28;19923;-76
2023/05/04 08:30:19;;;;;;;;;;;;;;;18.39;100.00;100211.16;5106568;28;19926;-75
2023/05/04 08:32:44;;;;;;;;;;;;;;;18.42;100.00;100219.69;5098383;28;19922;-75
2023/05/04 08:35:10;;;;;;;;;;;;;;;18.47;100.00;100215.63;5081421;28;19916;-75
2023/05/04 08:37:35;;;;;;;;;;;;;;;18.55;100.00;100218.28;5104112;28;20283;-75
2023/05/04 08:40:01;;;;;;;;;;;;;;;18.65;100.00;100214.38;5084831;28;19965;-75
2023/05/04 08:42:27;;;;;;;;;;;;;;;18.79;100.00;100218.91;5100383;28;20060;-75
2023/05/04 08:44:54;;;;;;;;;;;;;;;18.89;100.00;100213.34;5097974;28;19934;-75
2023/05/04 08:47:19;;;;;;;;;;;;;;;18.97;100.00;100215.94;5098403;28;19920;-75
2023/05/04 08:49:45;;;;;;;;;;;;;;;19.02;100.00;100212.72;5103496;28;20591;-75
2023/05/04 08:52:10;;;;;;;;;;;;;;;19.08;100.00;100212.00;5099822;28;20310;-76
2023/05/04 08:54:38;;;;;;;;;;;;;;;19.07;100.00;100213.84;5101691;28;19922;-75
2023/05/04 08:57:04;;;;;;;;;;;;;;;19.07;100.00;100211.19;5102418;28;19916;-74
2023/05/04 08:59:30;;;;;;;;;;;;;;;19.21;100.00;100213.03;5103821;28;19919;-76
2023/05/04 09:01:57;;;;;;;;;;;;;;;19.31;100.00;100211.94;5098776;28;19923;-76
2023/05/04 09:04:22;;;;;;;;;;;;;;;19.37;99.23;100214.72;5100386;28;19927;-75
2023/05/04 09:06:48;;;;;;;;;;;;;;;19.41;97.36;100207.97;5104448;28;19915;-76
2023/05/04 09:09:13;;;;;;;;;;;;;;;19.52;97.54;100206.72;5101670;28;19916;-76
2023/05/04 09:11:39;;;;;;;;;;;;;;;19.59;97.40;100210.31;5101749;28;20021;-76
2023/05/04 09:14:04;;;;;;;;;;;;;;;19.64;96.92;100207.91;5084597;28;20286;-76
2023/05/04 09:16:34;;;;;;;;;;;;;;;19.55;95.88;100206.38;5102315;28;19911;-76
2023/05/04 09:18:59;;;;;;;;;;;;;;;19.64;96.15;100213.28;5104100;28;20003;-76
2023/05/04 09:21:28;;;;;;;;;;;;;;;19.63;96.21;100211.59;5097662;28;20447;-76
2023/05/04 09:23:54;;;;;;;;;;;;;;;19.66;96.87;100205.06;5096147;28;19920;-76
2023/05/04 09:26:29;;;;;;;;;;;;;;;19.65;96.04;100204.22;5103544;28;19988;-76
2023/05/04 09:28:55;;;;;;;;;;;;;;;19.68;96.41;100208.38;5078152;28;20326;-76
2023/05/04 09:31:22;;;;;;;;;;;;;;;19.73;95.83;100200.63;5102166;28;19915;-76
2023/05/04 09:33:47;;;;;;;;;;;;;;;19.81;95.38;100204.03;5100717;28;19924;-76
2023/05/04 09:36:17;;;;;;;;;;;;;;;19.89;92.91;100201.25;5100486;28;19981;-76
2023/05/04 09:38:43;;;;;;;;;;;;;;;19.90;91.57;100202.91;5102146;28;19923;-75
2023/05/04 09:41:08;;;;;;;;;;;;;;;19.92;89.80;100206.22;5102311;28;19916;-76
2023/05/04 09:43:41;;;;;;;;;;;;;;;19.92;89.63;100200.88;5100382;28;20362;-76
2023/05/04 09:46:14;;;;;;;;;;;;;;;19.99;89.10;100198.28;5101723;28;19969;-75
2023/05/04 09:48:49;;;;;;;;;;;;;;;19.92;88.17;100195.50;5099781;28;19916;-76
2023/05/04 09:51:15;;;;;;;;;;;;;;;19.99;88.52;100191.06;5100142;28;19919;-76
2023/05/04 09:53:42;;;;;;;;;;;;;;;19.96;87.42;100188.78;5101470;28;20380;-77
2023/05/04 09:56:10;;;;;;;;;;;;;;;20.03;87.42;100180.78;5100304;28;20311;-76
2023/05/04 09:58:36;;;;;;;;;;;;;;;20.12;87.78;100179.69;5101850;28;19965;-76
2023/05/04 10:01:01;;;;;;;;;;;;;;;20.21;86.47;100172.34;5102369;28;19963;-76
2023/05/04 10:03:27;;;;;;;;;;;;;;;20.31;86.77;100178.22;5079979;28;19920;-77
2023/05/04 10:05:53;;;;;;;;;;;;;;;20.38;85.67;100179.97;5077156;28;20010;-77
2023/05/04 10:08:19;;;;;;;;;;;;;;;20.45;84.26;100174.69;5099278;28;19920;-77
2023/05/04 10:10:44;;;;;;;;;;;;;;;20.45;82.21;100177.34;5101107;28;20076;-76
2023/05/04 10:13:10;;;;;;;;;;;;;;;20.30;80.60;100174.72;5103188;28;19923;-77
2023/05/04 10:15:38;;;;;;;;;;;;;;;20.35;81.34;100174.19;5099819;28;20012;-77
2023/05/04 10:18:23;;;;;;;;;;;;;;;20.46;81.63;100176.34;5099908;28;20414;-77
2023/05/04 10:20:48;;;;;;;;;;;;;;;20.57;82.40;100173.16;5096141;28;19924;-76
2023/05/04 10:23:35;;;;;;;;;;;;;;;20.69;81.22;100168.09;5082015;28;19942;-76
2023/05/04 10:26:19;;;;;;;;;;;;;;;20.80;79.56;100162.19;5095672;28;20364;-76
2023/05/04 10:28:55;;;;;;;;;;;;;;;20.94;78.79;100163.16;5082847;28;20352;-77
2023/05/04 10:31:21;;;;;;;;;;;;;;;21.06;77.78;100156.22;5083425;28;19970;-77
2023/05/04 10:33:46;;;;;;;;;;;;;;;21.13;77.16;100160.63;5099672;28;19916;-75
2023/05/04 10:36:12;;;;;;;;;;;;;;;21.10;73.62;100152.09;5082378;28;20267;-76
2023/05/04 10:38:38;;;;;;;;;;;;;;;21.09;74.42;100158.50;5083822;28;19930;-76
2023/05/04 10:41:14;;;;;;;;;;;;;;;21.17;75.19;100148.47;5098844;28;19938;-74
2023/05/04 10:43:39;;;;;;;;;;;;;;;21.30;73.10;100147.75;5101019;28;19922;-77
2023/05/04 10:46:20;;;;;;;;;;;;;;;21.39;72.56;100151.06;5100433;28;20582;-76
2023/05/04 10:48:46;;;;;;;;;;;;;;;21.38;71.50;100136.84;5099455;28;20382;-77
2023/05/04 10:51:22;;;;;;;;;;;;;;;21.50;72.09;100142.50;5100415;28;19958;-77
2023/05/04 10:53:47;;;;;;;;;;;;;;;21.46;71.18;100131.31;5100874;28;20320;-76
2023/05/04 10:56:22;;;;;;;;;;;;;;;21.42;71.04;100124.69;5098101;28;19927;-75
2023/05/04 10:58:48;;;;;;;;;;;;;;;21.51;71.81;100118.09;5083222;28;19947;-74
2023/05/04 11:01:13;;;;;;;;;;;;;;;21.62;70.93;100120.22;5099101;28;20372;-75
2023/05/04 11:03:39;;;;;;;;;;;;;;;21.73;71.03;100123.38;5100699;28;20405;-76
2023/05/04 11:06:14;;;;;;;;;;;;;;;21.80;69.25;100121.50;5097723;28;19985;-75
2023/05/04 11:08:39;;;;;;;;;;;;;;;21.85;69.32;100119.06;5081469;28;19930;-76
2023/05/04 11:11:08;;;;;;;;;;;;;;;21.92;68.99;100123.41;5065277;28;19915;-76
2023/05/04 11:13:35;;;;;;;;;;;;;;;21.93;68.59;100121.56;5083257;28;19924;-77
2023/05/04 11:16:00;;;;;;;;;;;;;;;21.87;68.52;100117.00;5097582;28;19915;-76
2023/05/04 11:18:30;;;;;;;;;;;;;;;21.97;69.46;100114.81;5101747;28;19942;-77
2023/05/04 11:20:56;;;;;;;;;;;;;;;22.08;67.31;100113.38;5089730;28;20280;-76
2023/05/04 11:23:21;;;;;;;;;;;;;;;22.16;67.59;100108.63;5097426;28;20169;-76
2023/05/04 11:25:47;;;;;;;;;;;;;;;22.24;65.89;100108.44;5100775;28;19973;-76
2023/05/04 11:28:14;;;;;;;;;;;;;;;22.40;67.77;100096.44;5101183;28;20007;-74
2023/05/04 11:30:41;;;;;;;;;;;;;;;22.45;65.87;100089.41;5094741;28;20368;-76
2023/05/04 11:33:15;;;;;;;;;;;;;;;22.51;66.52;100090.44;5099050;28;19919;-74
2023/05/04 11:35:42;;;;;;;;;;;;;;;22.68;66.19;100093.56;5095497;28;19923;-74
2023/05/04 11:38:08;;;;;;;;;;;;;;;22.78;65.79;100088.63;5102411;28;19915;-76
2023/05/04 11:40:34;;;;;;;;;;;;;;;22.92;64.94;100084.84;5083756;28;19923;-77
2023/05/04 11:43:01;;;;;;;;;;;;;;;22.95;64.16;100073.69;5095719;28;19916;-76
2023/05/04 11:45:31;;;;;;;;;;;;;;;22.87;62.08;100071.19;5087971;28;19924;-75
2023/05/04 11:47:57;;;;;;;;;;;;;;;22.83;61.41;100072.66;5083479;28;20283;-75
2023/05/04 11:50:24;;;;;;;;;;;;;;;22.78;60.54;100069.78;5079772;28;19920;-77
2023/05/04 11:52:49;;;;;;;;;;;;;;;22.92;60.38;100068.72;5104866;28;19923;-76
2023/05/04 11:55:28;;;;;;;;;;;;;;;23.05;60.63;100067.84;5085444;28;19920;-76
2023/05/04 11:58:00;;;;;;;;;;;;;;;23.08;59.47;100070.97;5096728;28;20283;-76
2023/05/04 12:00:38;;;;;;;;;;;;;;;23.07;59.54;100063.94;5099086;28;19952;-75
2023/05/04 12:03:05;;;;;;;;;;;;;;;23.19;60.07;100064.94;5098975;28;19912;-77
2023/05/04 12:05:31;;;;;;;;;;;;;;;23.25;59.45;100072.16;5103024;28;19915;-75
2023/05/04 12:07:56;;;;;;;;;;;;;;;23.19;59.72;100064.09;5100278;28;20289;-77
2023/05/04 12:10:34;;;;;;;;;;;;;;;23.09;58.86;100059.13;5103298;28;19920;-76
2023/05/04 12:13:00;;;;;;;;;;;;;;;22.93;60.52;100048.84;5097717;28;19972;-76
2023/05/04 12:15:30;;;;;;;;;;;;;;;23.06;60.27;100051.50;5070479;28;19916;-76
2023/05/04 12:17:56;;;;;;;;;;;;;;;23.01;59.24;100051.31;5101654;28;19920;-76
2023/05/04 12:20:27;;;;;;;;;;;;;;;22.98;59.35;100046.34;5111154;28;19943;-74
2023/05/04 12:22:53;;;;;;;;;;;;;;;22.93;59.25;100042.63;5101013;28;19919;-77
2023/05/04 12:25:18;;;;;;;;;;;;;;;22.91;59.24;100039.34;5104865;28;19924;-75
2023/05/04 12:27:44;;;;;;;;;;;;;;;22.85;60.68;100041.81;5106258;28;19916;-76
2023/05/04 12:30:10;;;;;;;;;;;;;;;22.82;61.67;100046.78;5097740;28;19924;-75